sensor_id;sensor_type;location;lat;lon;timestamp;P1;durP1;ratioP1;P2;durP2;ratioP2
41249;SDS011;26984;59.928;30.306;2022-08-19T00:01:34;24.13;;;17.77;;
41249;SDS011;26984;59.928;30.306;2022-08-19T00:04:04;21.90;;;16.20;;
41249;SDS011;26984;59.928;30.306;2022-08-19T00:06:34;19.15;;;16.65;;
41249;SDS011;26984;59.928;30.306;2022-08-19T00:09:04;26.05;;;16.42;;
41249;SDS011;26984;59.928;30.306;2022-08-19T00:11:34;20.85;;;15.13;;
41249;SDS011;26984;59.928;30.306;2022-08-19T00:14:05;18.77;;;16.67;;
41249;SDS011;26984;59.928;30.306;2022-08-19T00:16:35;21.92;;;19.35;;
41249;SDS011;26984;59.928;30.306;2022-08-19T00:19:04;26.75;;;19.83;;
41249;SDS011;26984;59.928;30.306;2022-08-19T00:21:32;23.13;;;17.98;;
41249;SDS011;26984;59.928;30.306;2022-08-19T00:24:02;25.15;;;19.10;;
41249;SDS011;26984;59.928;30.306;2022-08-19T00:26:31;18.92;;;16.73;;
41249;SDS011;26984;59.928;30.306;2022-08-19T00:29:00;20.48;;;17.08;;
41249;SDS011;26984;59.928;30.306;2022-08-19T00:31:29;19.23;;;15.07;;
41249;SDS011;26984;59.928;30.306;2022-08-19T00:33:57;24.45;;;16.88;;
41249;SDS011;26984;59.928;30.306;2022-08-19T00:36:25;18.23;;;16.50;;
41249;SDS011;26984;59.928;30.306;2022-08-19T00:38:54;21.85;;;16.27;;
41249;SDS011;26984;59.928;30.306;2022-08-19T00:41:23;19.00;;;17.00;;
41249;SDS011;26984;59.928;30.306;2022-08-19T00:44:02;20.55;;;18.35;;
41249;SDS011;26984;59.928;30.306;2022-08-19T00:46:33;21.70;;;17.20;;
41249;SDS011;26984;59.928;30.306;2022-08-19T00:49:04;19.13;;;16.08;;
41249;SDS011;26984;59.928;30.306;2022-08-19T00:51:36;19.92;;;16.67;;
41249;SDS011;26984;59.928;30.306;2022-08-19T00:54:04;19.58;;;15.68;;
41249;SDS011;26984;59.928;30.306;2022-08-19T00:56:32;21.38;;;16.05;;
41249;SDS011;26984;59.928;30.306;2022-08-19T00:59:01;21.42;;;14.88;;
41249;SDS011;26984;59.928;30.306;2022-08-19T01:01:36;20.73;;;16.10;;
41249;SDS011;26984;59.928;30.306;2022-08-19T01:04:04;18.02;;;15.43;;
41249;SDS011;26984;59.928;30.306;2022-08-19T01:06:32;20.83;;;16.65;;
41249;SDS011;26984;59.928;30.306;2022-08-19T01:09:03;21.75;;;16.02;;
41249;SDS011;26984;59.928;30.306;2022-08-19T01:11:31;22.90;;;17.08;;
41249;SDS011;26984;59.928;30.306;2022-08-19T01:14:02;19.52;;;17.73;;
41249;SDS011;26984;59.928;30.306;2022-08-19T01:16:31;23.42;;;19.15;;
41249;SDS011;26984;59.928;30.306;2022-08-19T01:19:02;22.55;;;18.15;;
41249;SDS011;26984;59.928;30.306;2022-08-19T01:21:40;23.90;;;17.55;;
41249;SDS011;26984;59.928;30.306;2022-08-19T01:24:14;20.73;;;16.45;;
41249;SDS011;26984;59.928;30.306;2022-08-19T01:26:43;20.17;;;16.83;;
41249;SDS011;26984;59.928;30.306;2022-08-19T01:29:12;18.70;;;16.73;;
41249;SDS011;26984;59.928;30.306;2022-08-19T01:31:40;21.77;;;17.75;;
41249;SDS011;26984;59.928;30.306;2022-08-19T01:36:37;23.20;;;17.27;;
41249;SDS011;26984;59.928;30.306;2022-08-19T01:39:09;21.48;;;17.65;;
41249;SDS011;26984;59.928;30.306;2022-08-19T01:41:40;24.90;;;19.05;;
41249;SDS011;26984;59.928;30.306;2022-08-19T01:44:08;21.73;;;19.27;;
41249;SDS011;26984;59.928;30.306;2022-08-19T01:46:36;22.05;;;19.60;;
41249;SDS011;26984;59.928;30.306;2022-08-19T01:49:06;23.30;;;20.40;;
41249;SDS011;26984;59.928;30.306;2022-08-19T01:51:34;24.92;;;20.50;;
41249;SDS011;26984;59.928;30.306;2022-08-19T01:54:03;24.77;;;22.38;;
41249;SDS011;26984;59.928;30.306;2022-08-19T01:56:31;27.80;;;24.23;;
41249;SDS011;26984;59.928;30.306;2022-08-19T01:59:01;25.80;;;23.25;;
41249;SDS011;26984;59.928;30.306;2022-08-19T02:01:31;25.10;;;22.25;;
41249;SDS011;26984;59.928;30.306;2022-08-19T02:04:00;30.17;;;27.10;;
41249;SDS011;26984;59.928;30.306;2022-08-19T02:06:28;29.13;;;26.63;;
41249;SDS011;26984;59.928;30.306;2022-08-19T02:08:56;30.75;;;27.63;;
41249;SDS011;26984;59.928;30.306;2022-08-19T02:11:25;28.13;;;25.38;;
41249;SDS011;26984;59.928;30.306;2022-08-19T02:13:57;25.23;;;22.83;;
41249;SDS011;26984;59.928;30.306;2022-08-19T02:16:26;27.17;;;24.33;;
41249;SDS011;26984;59.928;30.306;2022-08-19T02:18:56;22.95;;;20.60;;
41249;SDS011;26984;59.928;30.306;2022-08-19T02:21:27;27.98;;;21.65;;
41249;SDS011;26984;59.928;30.306;2022-08-19T02:23:56;24.65;;;22.15;;
41249;SDS011;26984;59.928;30.306;2022-08-19T02:26:24;25.55;;;23.00;;
41249;SDS011;26984;59.928;30.306;2022-08-19T02:28:53;36.05;;;32.88;;
41249;SDS011;26984;59.928;30.306;2022-08-19T02:31:22;36.47;;;33.22;;
41249;SDS011;26984;59.928;30.306;2022-08-19T02:33:53;47.53;;;43.70;;
41249;SDS011;26984;59.928;30.306;2022-08-19T02:36:21;40.08;;;37.03;;
41249;SDS011;26984;59.928;30.306;2022-08-19T02:38:51;41.42;;;37.97;;
41249;SDS011;26984;59.928;30.306;2022-08-19T02:41:18;41.03;;;37.50;;
41249;SDS011;26984;59.928;30.306;2022-08-19T02:43:47;33.30;;;30.23;;
41249;SDS011;26984;59.928;30.306;2022-08-19T02:46:17;36.72;;;33.08;;
41249;SDS011;26984;59.928;30.306;2022-08-19T02:48:48;35.25;;;32.08;;
41249;SDS011;26984;59.928;30.306;2022-08-19T02:51:18;32.95;;;29.52;;
41249;SDS011;26984;59.928;30.306;2022-08-19T02:53:47;27.30;;;24.67;;
41249;SDS011;26984;59.928;30.306;2022-08-19T02:56:15;24.95;;;22.25;;
41249;SDS011;26984;59.928;30.306;2022-08-19T02:58:43;26.95;;;20.85;;
41249;SDS011;26984;59.928;30.306;2022-08-19T03:01:18;26.05;;;22.05;;
41249;SDS011;26984;59.928;30.306;2022-08-19T03:03:47;23.50;;;20.83;;
41249;SDS011;26984;59.928;30.306;2022-08-19T03:08:45;23.90;;;18.52;;
41249;SDS011;26984;59.928;30.306;2022-08-19T03:11:15;21.60;;;18.98;;
41249;SDS011;26984;59.928;30.306;2022-08-19T03:13:44;23.50;;;19.77;;
41249;SDS011;26984;59.928;30.306;2022-08-19T03:18:39;27.40;;;18.83;;
41249;SDS011;26984;59.928;30.306;2022-08-19T03:21:07;24.75;;;21.05;;
41249;SDS011;26984;59.928;30.306;2022-08-19T03:23:35;25.50;;;18.77;;
41249;SDS011;26984;59.928;30.306;2022-08-19T03:26:05;28.50;;;25.50;;
41249;SDS011;26984;59.928;30.306;2022-08-19T03:28:33;25.38;;;22.42;;
41249;SDS011;26984;59.928;30.306;2022-08-19T03:31:02;27.33;;;23.75;;
41249;SDS011;26984;59.928;30.306;2022-08-19T03:33:33;23.27;;;20.48;;
41249;SDS011;26984;59.928;30.306;2022-08-19T03:36:05;23.95;;;17.00;;
41249;SDS011;26984;59.928;30.306;2022-08-19T03:38:36;22.13;;;16.70;;
41249;SDS011;26984;59.928;30.306;2022-08-19T03:41:08;23.88;;;16.55;;
41249;SDS011;26984;59.928;30.306;2022-08-19T03:43:38;21.23;;;18.27;;
41249;SDS011;26984;59.928;30.306;2022-08-19T03:46:09;25.83;;;18.63;;
41249;SDS011;26984;59.928;30.306;2022-08-19T03:48:39;25.58;;;17.65;;
41249;SDS011;26984;59.928;30.306;2022-08-19T03:51:14;21.05;;;17.55;;
41249;SDS011;26984;59.928;30.306;2022-08-19T03:53:43;22.60;;;19.55;;
41249;SDS011;26984;59.928;30.306;2022-08-19T03:58:40;25.95;;;20.70;;
41249;SDS011;26984;59.928;30.306;2022-08-19T04:01:08;26.30;;;23.55;;
41249;SDS011;26984;59.928;30.306;2022-08-19T04:03:37;29.27;;;25.05;;
41249;SDS011;26984;59.928;30.306;2022-08-19T04:06:09;24.80;;;22.38;;
41249;SDS011;26984;59.928;30.306;2022-08-19T04:08:38;22.02;;;19.80;;
41249;SDS011;26984;59.928;30.306;2022-08-19T04:11:07;26.05;;;22.38;;
41249;SDS011;26984;59.928;30.306;2022-08-19T04:13:37;26.08;;;23.42;;
41249;SDS011;26984;59.928;30.306;2022-08-19T04:16:05;26.75;;;23.10;;
41249;SDS011;26984;59.928;30.306;2022-08-19T04:18:36;25.67;;;23.13;;
41249;SDS011;26984;59.928;30.306;2022-08-19T04:21:04;26.80;;;20.70;;
41249;SDS011;26984;59.928;30.306;2022-08-19T04:23:34;23.58;;;20.25;;
41249;SDS011;26984;59.928;30.306;2022-08-19T04:26:03;21.52;;;19.48;;
41249;SDS011;26984;59.928;30.306;2022-08-19T04:28:30;22.42;;;18.75;;
41249;SDS011;26984;59.928;30.306;2022-08-19T04:31:00;21.10;;;16.48;;
41249;SDS011;26984;59.928;30.306;2022-08-19T04:33:27;25.13;;;17.95;;
41249;SDS011;26984;59.928;30.306;2022-08-19T04:35:55;23.75;;;19.05;;
41249;SDS011;26984;59.928;30.306;2022-08-19T04:38:24;21.05;;;18.92;;
41249;SDS011;26984;59.928;30.306;2022-08-19T04:40:52;25.23;;;17.95;;
41249;SDS011;26984;59.928;30.306;2022-08-19T04:43:38;23.67;;;17.08;;
41249;SDS011;26984;59.928;30.306;2022-08-19T04:46:08;17.95;;;16.02;;
41249;SDS011;26984;59.928;30.306;2022-08-19T04:48:37;26.83;;;16.45;;
41249;SDS011;26984;59.928;30.306;2022-08-19T04:51:07;25.38;;;16.70;;
41249;SDS011;26984;59.928;30.306;2022-08-19T04:53:39;21.88;;;17.05;;
41249;SDS011;26984;59.928;30.306;2022-08-19T04:56:09;22.88;;;15.98;;
41249;SDS011;26984;59.928;30.306;2022-08-19T04:58:38;22.30;;;14.95;;
41249;SDS011;26984;59.928;30.306;2022-08-19T05:01:10;32.40;;;17.60;;
41249;SDS011;26984;59.928;30.306;2022-08-19T05:03:39;22.17;;;17.60;;
41249;SDS011;26984;59.928;30.306;2022-08-19T05:06:08;23.75;;;16.80;;
41249;SDS011;26984;59.928;30.306;2022-08-19T05:08:39;19.83;;;15.93;;
41249;SDS011;26984;59.928;30.306;2022-08-19T05:11:11;22.42;;;15.68;;
41249;SDS011;26984;59.928;30.306;2022-08-19T05:13:41;20.02;;;17.30;;
41249;SDS011;26984;59.928;30.306;2022-08-19T05:16:12;23.02;;;15.07;;
41249;SDS011;26984;59.928;30.306;2022-08-19T05:18:40;21.52;;;14.30;;
41249;SDS011;26984;59.928;30.306;2022-08-19T05:21:26;23.27;;;13.40;;
41249;SDS011;26984;59.928;30.306;2022-08-19T05:24:26;19.60;;;12.68;;
41249;SDS011;26984;59.928;30.306;2022-08-19T05:26:55;16.85;;;14.02;;
41249;SDS011;26984;59.928;30.306;2022-08-19T05:29:25;19.38;;;13.23;;
41249;SDS011;26984;59.928;30.306;2022-08-19T05:31:55;20.23;;;13.23;;
41249;SDS011;26984;59.928;30.306;2022-08-19T05:34:24;21.05;;;13.57;;
41249;SDS011;26984;59.928;30.306;2022-08-19T05:36:53;20.73;;;12.80;;
41249;SDS011;26984;59.928;30.306;2022-08-19T05:39:23;17.00;;;13.52;;
41249;SDS011;26984;59.928;30.306;2022-08-19T05:41:53;19.60;;;14.10;;
41249;SDS011;26984;59.928;30.306;2022-08-19T05:44:24;20.77;;;12.82;;
41249;SDS011;26984;59.928;30.306;2022-08-19T05:46:52;16.05;;;12.70;;
41249;SDS011;26984;59.928;30.306;2022-08-19T05:49:22;19.65;;;12.93;;
41249;SDS011;26984;59.928;30.306;2022-08-19T05:51:53;21.58;;;13.05;;
41249;SDS011;26984;59.928;30.306;2022-08-19T05:54:23;17.60;;;13.82;;
41249;SDS011;26984;59.928;30.306;2022-08-19T05:56:51;22.27;;;15.05;;
41249;SDS011;26984;59.928;30.306;2022-08-19T05:59:22;18.58;;;14.07;;
41249;SDS011;26984;59.928;30.306;2022-08-19T06:01:52;19.13;;;13.07;;
41249;SDS011;26984;59.928;30.306;2022-08-19T06:04:24;16.20;;;12.68;;
41249;SDS011;26984;59.928;30.306;2022-08-19T06:06:52;17.70;;;12.70;;
41249;SDS011;26984;59.928;30.306;2022-08-19T06:09:21;17.83;;;13.63;;
41249;SDS011;26984;59.928;30.306;2022-08-19T06:11:49;19.77;;;12.88;;
41249;SDS011;26984;59.928;30.306;2022-08-19T06:14:20;15.32;;;11.50;;
41249;SDS011;26984;59.928;30.306;2022-08-19T06:16:50;21.98;;;11.60;;
41249;SDS011;26984;59.928;30.306;2022-08-19T06:19:18;18.83;;;12.45;;
41249;SDS011;26984;59.928;30.306;2022-08-19T06:21:50;18.92;;;11.73;;
41249;SDS011;26984;59.928;30.306;2022-08-19T06:24:21;22.27;;;11.98;;
41249;SDS011;26984;59.928;30.306;2022-08-19T06:26:51;17.35;;;11.90;;
41249;SDS011;26984;59.928;30.306;2022-08-19T06:29:22;15.95;;;12.57;;
41249;SDS011;26984;59.928;30.306;2022-08-19T06:31:53;18.17;;;11.13;;
41249;SDS011;26984;59.928;30.306;2022-08-19T06:34:23;18.70;;;11.93;;
41249;SDS011;26984;59.928;30.306;2022-08-19T06:36:52;21.25;;;11.93;;
41249;SDS011;26984;59.928;30.306;2022-08-19T06:39:22;27.25;;;12.38;;
41249;SDS011;26984;59.928;30.306;2022-08-19T06:41:52;20.73;;;12.02;;
41249;SDS011;26984;59.928;30.306;2022-08-19T06:44:22;20.10;;;11.93;;
41249;SDS011;26984;59.928;30.306;2022-08-19T06:46:52;20.45;;;11.88;;
41249;SDS011;26984;59.928;30.306;2022-08-19T06:49:20;17.67;;;12.23;;
41249;SDS011;26984;59.928;30.306;2022-08-19T06:51:49;23.15;;;11.23;;
41249;SDS011;26984;59.928;30.306;2022-08-19T06:54:19;18.40;;;11.00;;
41249;SDS011;26984;59.928;30.306;2022-08-19T06:56:46;14.48;;;10.82;;
41249;SDS011;26984;59.928;30.306;2022-08-19T06:59:15;22.10;;;11.80;;
41249;SDS011;26984;59.928;30.306;2022-08-19T07:01:45;17.55;;;11.32;;
41249;SDS011;26984;59.928;30.306;2022-08-19T07:04:15;17.02;;;10.65;;
41249;SDS011;26984;59.928;30.306;2022-08-19T07:06:45;18.00;;;11.45;;
41249;SDS011;26984;59.928;30.306;2022-08-19T07:09:14;23.90;;;11.88;;
41249;SDS011;26984;59.928;30.306;2022-08-19T07:11:46;26.05;;;12.32;;
41249;SDS011;26984;59.928;30.306;2022-08-19T07:14:17;21.88;;;11.90;;
41249;SDS011;26984;59.928;30.306;2022-08-19T07:16:47;24.75;;;12.00;;
41249;SDS011;26984;59.928;30.306;2022-08-19T07:19:17;19.80;;;11.73;;
41249;SDS011;26984;59.928;30.306;2022-08-19T07:21:47;24.05;;;12.80;;
41249;SDS011;26984;59.928;30.306;2022-08-19T07:24:18;21.10;;;11.93;;
41249;SDS011;26984;59.928;30.306;2022-08-19T07:26:51;21.10;;;11.35;;
41249;SDS011;26984;59.928;30.306;2022-08-19T07:29:19;14.38;;;10.55;;
41249;SDS011;26984;59.928;30.306;2022-08-19T07:31:49;22.73;;;12.02;;
41249;SDS011;26984;59.928;30.306;2022-08-19T07:34:17;21.52;;;11.95;;
41249;SDS011;26984;59.928;30.306;2022-08-19T07:36:45;21.83;;;11.90;;
41249;SDS011;26984;59.928;30.306;2022-08-19T07:39:14;16.52;;;10.57;;
41249;SDS011;26984;59.928;30.306;2022-08-19T07:41:43;21.48;;;11.50;;
41249;SDS011;26984;59.928;30.306;2022-08-19T07:44:14;21.02;;;11.30;;
41249;SDS011;26984;59.928;30.306;2022-08-19T07:46:43;21.92;;;11.65;;
41249;SDS011;26984;59.928;30.306;2022-08-19T07:49:14;27.17;;;11.73;;
41249;SDS011;26984;59.928;30.306;2022-08-19T07:51:45;21.48;;;10.80;;
41249;SDS011;26984;59.928;30.306;2022-08-19T07:54:15;19.00;;;10.95;;
41249;SDS011;26984;59.928;30.306;2022-08-19T07:56:44;17.80;;;10.27;;
41249;SDS011;26984;59.928;30.306;2022-08-19T07:59:12;16.30;;;10.73;;
41249;SDS011;26984;59.928;30.306;2022-08-19T08:01:43;27.40;;;13.43;;
41249;SDS011;26984;59.928;30.306;2022-08-19T08:04:11;21.00;;;10.98;;
41249;SDS011;26984;59.928;30.306;2022-08-19T08:06:56;14.60;;;9.50;;
41249;SDS011;26984;59.928;30.306;2022-08-19T08:09:42;18.52;;;11.18;;
41249;SDS011;26984;59.928;30.306;2022-08-19T08:12:12;19.52;;;10.82;;
41249;SDS011;26984;59.928;30.306;2022-08-19T08:14:46;23.98;;;11.60;;
41249;SDS011;26984;59.928;30.306;2022-08-19T08:17:17;21.02;;;11.30;;
41249;SDS011;26984;59.928;30.306;2022-08-19T08:19:46;16.67;;;10.90;;
41249;SDS011;26984;59.928;30.306;2022-08-19T08:22:17;17.95;;;11.07;;
41249;SDS011;26984;59.928;30.306;2022-08-19T08:25:00;20.83;;;10.75;;
41249;SDS011;26984;59.928;30.306;2022-08-19T08:27:30;20.95;;;11.80;;
41249;SDS011;26984;59.928;30.306;2022-08-19T08:29:59;19.30;;;9.90;;
41249;SDS011;26984;59.928;30.306;2022-08-19T08:32:27;20.30;;;10.00;;
41249;SDS011;26984;59.928;30.306;2022-08-19T08:34:56;18.85;;;10.23;;
41249;SDS011;26984;59.928;30.306;2022-08-19T08:37:25;21.73;;;10.80;;
41249;SDS011;26984;59.928;30.306;2022-08-19T08:39:53;19.38;;;9.25;;
41249;SDS011;26984;59.928;30.306;2022-08-19T08:42:22;20.00;;;9.75;;
41249;SDS011;26984;59.928;30.306;2022-08-19T08:44:57;18.30;;;9.88;;
41249;SDS011;26984;59.928;30.306;2022-08-19T08:47:30;17.33;;;11.05;;
41249;SDS011;26984;59.928;30.306;2022-08-19T08:50:03;21.10;;;12.68;;
41249;SDS011;26984;59.928;30.306;2022-08-19T08:52:35;16.52;;;10.32;;
41249;SDS011;26984;59.928;30.306;2022-08-19T08:55:10;16.33;;;9.77;;
41249;SDS011;26984;59.928;30.306;2022-08-19T08:57:43;12.75;;;9.85;;
41249;SDS011;26984;59.928;30.306;2022-08-19T09:00:21;13.15;;;8.75;;
41249;SDS011;26984;59.928;30.306;2022-08-19T09:02:53;14.52;;;9.23;;
41249;SDS011;26984;59.928;30.306;2022-08-19T09:05:21;19.58;;;9.25;;
41249;SDS011;26984;59.928;30.306;2022-08-19T09:07:53;32.15;;;11.18;;
41249;SDS011;26984;59.928;30.306;2022-08-19T09:10:28;19.10;;;10.02;;
41249;SDS011;26984;59.928;30.306;2022-08-19T09:13:04;16.75;;;9.48;;
41249;SDS011;26984;59.928;30.306;2022-08-19T09:15:38;23.35;;;10.32;;
41249;SDS011;26984;59.928;30.306;2022-08-19T09:18:11;17.75;;;9.57;;
41249;SDS011;26984;59.928;30.306;2022-08-19T09:20:39;22.35;;;9.65;;
41249;SDS011;26984;59.928;30.306;2022-08-19T09:23:15;14.27;;;9.77;;
41249;SDS011;26984;59.928;30.306;2022-08-19T09:25:45;18.60;;;10.38;;
41249;SDS011;26984;59.928;30.306;2022-08-19T09:28:13;12.07;;;9.68;;
41249;SDS011;26984;59.928;30.306;2022-08-19T09:30:41;20.17;;;10.27;;
41249;SDS011;26984;59.928;30.306;2022-08-19T09:33:09;15.80;;;10.15;;
41249;SDS011;26984;59.928;30.306;2022-08-19T09:35:38;18.45;;;9.88;;
41249;SDS011;26984;59.928;30.306;2022-08-19T09:38:06;15.82;;;9.68;;
41249;SDS011;26984;59.928;30.306;2022-08-19T09:40:34;18.88;;;10.20;;
41249;SDS011;26984;59.928;30.306;2022-08-19T09:43:02;16.30;;;9.82;;
41249;SDS011;26984;59.928;30.306;2022-08-19T09:45:31;16.48;;;9.68;;
41249;SDS011;26984;59.928;30.306;2022-08-19T09:47:59;15.77;;;9.90;;
41249;SDS011;26984;59.928;30.306;2022-08-19T09:50:26;17.80;;;9.35;;
41249;SDS011;26984;59.928;30.306;2022-08-19T09:52:55;15.93;;;8.75;;
41249;SDS011;26984;59.928;30.306;2022-08-19T09:55:24;11.02;;;8.50;;
41249;SDS011;26984;59.928;30.306;2022-08-19T09:57:53;13.85;;;9.00;;
41249;SDS011;26984;59.928;30.306;2022-08-19T10:00:21;13.20;;;8.95;;
41249;SDS011;26984;59.928;30.306;2022-08-19T10:02:49;19.42;;;9.27;;
41249;SDS011;26984;59.928;30.306;2022-08-19T10:05:16;12.32;;;8.43;;
41249;SDS011;26984;59.928;30.306;2022-08-19T10:08:03;12.70;;;8.88;;
41249;SDS011;26984;59.928;30.306;2022-08-19T10:10:34;14.60;;;8.13;;
41249;SDS011;26984;59.928;30.306;2022-08-19T10:13:03;17.55;;;8.07;;
41249;SDS011;26984;59.928;30.306;2022-08-19T10:15:30;17.08;;;8.77;;
41249;SDS011;26984;59.928;30.306;2022-08-19T10:17:58;14.48;;;8.18;;
41249;SDS011;26984;59.928;30.306;2022-08-19T10:20:26;12.27;;;7.57;;
41249;SDS011;26984;59.928;30.306;2022-08-19T10:22:55;10.60;;;8.07;;
41249;SDS011;26984;59.928;30.306;2022-08-19T10:25:26;15.77;;;7.75;;
41249;SDS011;26984;59.928;30.306;2022-08-19T10:27:54;10.85;;;8.13;;
41249;SDS011;26984;59.928;30.306;2022-08-19T10:30:22;12.43;;;8.40;;
41249;SDS011;26984;59.928;30.306;2022-08-19T10:32:49;12.82;;;7.93;;
41249;SDS011;26984;59.928;30.306;2022-08-19T10:35:17;11.05;;;7.63;;
41249;SDS011;26984;59.928;30.306;2022-08-19T10:37:45;13.23;;;7.60;;
41249;SDS011;26984;59.928;30.306;2022-08-19T10:40:13;10.98;;;7.07;;
41249;SDS011;26984;59.928;30.306;2022-08-19T10:42:42;11.00;;;7.57;;
41249;SDS011;26984;59.928;30.306;2022-08-19T10:45:10;12.63;;;7.68;;
41249;SDS011;26984;59.928;30.306;2022-08-19T10:47:38;11.30;;;6.78;;
41249;SDS011;26984;59.928;30.306;2022-08-19T10:50:06;10.27;;;7.15;;
41249;SDS011;26984;59.928;30.306;2022-08-19T10:52:51;10.23;;;7.10;;
41249;SDS011;26984;59.928;30.306;2022-08-19T10:55:20;12.82;;;7.07;;
41249;SDS011;26984;59.928;30.306;2022-08-19T10:58:11;9.48;;;7.07;;
41249;SDS011;26984;59.928;30.306;2022-08-19T11:00:39;11.38;;;7.13;;
41249;SDS011;26984;59.928;30.306;2022-08-19T11:03:08;8.73;;;7.00;;
41249;SDS011;26984;59.928;30.306;2022-08-19T11:05:36;12.48;;;7.30;;
41249;SDS011;26984;59.928;30.306;2022-08-19T11:08:04;10.02;;;7.78;;
41249;SDS011;26984;59.928;30.306;2022-08-19T11:10:33;9.93;;;6.55;;
41249;SDS011;26984;59.928;30.306;2022-08-19T11:13:02;13.95;;;7.80;;
41249;SDS011;26984;59.928;30.306;2022-08-19T11:15:31;12.30;;;8.07;;
41249;SDS011;26984;59.928;30.306;2022-08-19T11:17:59;9.48;;;7.25;;
41249;SDS011;26984;59.928;30.306;2022-08-19T11:20:27;14.23;;;7.97;;
41249;SDS011;26984;59.928;30.306;2022-08-19T11:22:56;10.55;;;7.93;;
41249;SDS011;26984;59.928;30.306;2022-08-19T11:25:23;9.50;;;7.18;;
41249;SDS011;26984;59.928;30.306;2022-08-19T11:27:51;13.90;;;7.93;;
41249;SDS011;26984;59.928;30.306;2022-08-19T11:30:19;10.68;;;7.22;;
41249;SDS011;26984;59.928;30.306;2022-08-19T11:32:48;12.23;;;7.43;;
41249;SDS011;26984;59.928;30.306;2022-08-19T11:35:16;13.02;;;7.13;;
41249;SDS011;26984;59.928;30.306;2022-08-19T11:37:46;13.43;;;8.20;;
41249;SDS011;26984;59.928;30.306;2022-08-19T11:40:14;9.45;;;7.93;;
41249;SDS011;26984;59.928;30.306;2022-08-19T11:42:42;11.02;;;8.50;;
41249;SDS011;26984;59.928;30.306;2022-08-19T11:45:23;11.20;;;8.18;;
41249;SDS011;26984;59.928;30.306;2022-08-19T11:47:52;10.50;;;7.93;;
41249;SDS011;26984;59.928;30.306;2022-08-19T11:50:20;12.05;;;8.38;;
41249;SDS011;26984;59.928;30.306;2022-08-19T11:52:49;10.43;;;8.23;;
41249;SDS011;26984;59.928;30.306;2022-08-19T11:55:17;12.55;;;8.57;;
41249;SDS011;26984;59.928;30.306;2022-08-19T11:57:45;10.05;;;8.23;;
41249;SDS011;26984;59.928;30.306;2022-08-19T12:00:13;20.73;;;11.25;;
41249;SDS011;26984;59.928;30.306;2022-08-19T12:02:41;12.27;;;8.18;;
41249;SDS011;26984;59.928;30.306;2022-08-19T12:05:10;12.57;;;8.50;;
41249;SDS011;26984;59.928;30.306;2022-08-19T12:07:38;12.70;;;7.88;;
41249;SDS011;26984;59.928;30.306;2022-08-19T12:10:07;12.00;;;8.63;;
41249;SDS011;26984;59.928;30.306;2022-08-19T12:12:35;11.93;;;8.88;;
41249;SDS011;26984;59.928;30.306;2022-08-19T12:15:08;13.90;;;9.55;;
41249;SDS011;26984;59.928;30.306;2022-08-19T12:17:37;11.68;;;9.73;;
41249;SDS011;26984;59.928;30.306;2022-08-19T12:20:06;14.15;;;9.27;;
41249;SDS011;26984;59.928;30.306;2022-08-19T12:22:37;14.13;;;8.93;;
41249;SDS011;26984;59.928;30.306;2022-08-19T12:25:07;10.20;;;8.55;;
41249;SDS011;26984;59.928;30.306;2022-08-19T12:27:36;15.02;;;8.80;;
41249;SDS011;26984;59.928;30.306;2022-08-19T12:30:05;15.77;;;8.05;;
41249;SDS011;26984;59.928;30.306;2022-08-19T12:32:36;12.20;;;8.75;;
41249;SDS011;26984;59.928;30.306;2022-08-19T12:35:04;9.68;;;7.60;;
41249;SDS011;26984;59.928;30.306;2022-08-19T12:37:34;14.27;;;7.35;;
41249;SDS011;26984;59.928;30.306;2022-08-19T12:40:05;10.32;;;8.35;;
41249;SDS011;26984;59.928;30.306;2022-08-19T12:42:33;11.50;;;7.93;;
41249;SDS011;26984;59.928;30.306;2022-08-19T12:45:02;12.52;;;8.10;;
41249;SDS011;26984;59.928;30.306;2022-08-19T12:47:30;9.05;;;7.60;;
41249;SDS011;26984;59.928;30.306;2022-08-19T12:49:57;14.48;;;8.07;;
41249;SDS011;26984;59.928;30.306;2022-08-19T12:52:25;10.95;;;6.88;;
41249;SDS011;26984;59.928;30.306;2022-08-19T12:54:55;15.98;;;7.72;;
41249;SDS011;26984;59.928;30.306;2022-08-19T12:57:26;9.57;;;7.05;;
41249;SDS011;26984;59.928;30.306;2022-08-19T12:59:55;17.15;;;7.90;;
41249;SDS011;26984;59.928;30.306;2022-08-19T13:02:22;9.50;;;7.65;;
41249;SDS011;26984;59.928;30.306;2022-08-19T13:04:50;9.60;;;7.22;;
41249;SDS011;26984;59.928;30.306;2022-08-19T13:07:18;11.10;;;7.32;;
41249;SDS011;26984;59.928;30.306;2022-08-19T13:09:47;9.70;;;7.60;;
41249;SDS011;26984;59.928;30.306;2022-08-19T13:12:18;12.10;;;6.47;;
41249;SDS011;26984;59.928;30.306;2022-08-19T13:14:47;14.60;;;7.78;;
41249;SDS011;26984;59.928;30.306;2022-08-19T13:17:16;12.00;;;7.10;;
41249;SDS011;26984;59.928;30.306;2022-08-19T13:19:44;11.95;;;6.50;;
41249;SDS011;26984;59.928;30.306;2022-08-19T13:22:12;11.77;;;7.13;;
41249;SDS011;26984;59.928;30.306;2022-08-19T13:24:40;7.93;;;6.53;;
41249;SDS011;26984;59.928;30.306;2022-08-19T13:27:08;9.98;;;6.95;;
41249;SDS011;26984;59.928;30.306;2022-08-19T13:29:35;10.20;;;6.95;;
41249;SDS011;26984;59.928;30.306;2022-08-19T13:32:22;11.15;;;7.30;;
41249;SDS011;26984;59.928;30.306;2022-08-19T13:35:07;11.65;;;7.45;;
41249;SDS011;26984;59.928;30.306;2022-08-19T13:37:35;10.23;;;7.63;;
41249;SDS011;26984;59.928;30.306;2022-08-19T13:40:10;12.75;;;7.35;;
41249;SDS011;26984;59.928;30.306;2022-08-19T13:42:43;11.40;;;7.22;;
41249;SDS011;26984;59.928;30.306;2022-08-19T13:45:13;13.20;;;7.57;;
41249;SDS011;26984;59.928;30.306;2022-08-19T13:47:44;11.65;;;8.43;;
41249;SDS011;26984;59.928;30.306;2022-08-19T13:50:13;11.30;;;7.57;;
41249;SDS011;26984;59.928;30.306;2022-08-19T13:52:43;12.57;;;7.88;;
41249;SDS011;26984;59.928;30.306;2022-08-19T13:55:11;13.68;;;7.60;;
41249;SDS011;26984;59.928;30.306;2022-08-19T13:57:39;11.40;;;7.55;;
41249;SDS011;26984;59.928;30.306;2022-08-19T14:00:09;9.15;;;7.57;;
41249;SDS011;26984;59.928;30.306;2022-08-19T14:02:39;10.60;;;7.47;;
41249;SDS011;26984;59.928;30.306;2022-08-19T14:05:11;12.88;;;7.93;;
41249;SDS011;26984;59.928;30.306;2022-08-19T14:07:41;13.48;;;8.43;;
41249;SDS011;26984;59.928;30.306;2022-08-19T14:10:10;11.63;;;8.98;;
41249;SDS011;26984;59.928;30.306;2022-08-19T14:12:39;9.85;;;8.38;;
41249;SDS011;26984;59.928;30.306;2022-08-19T14:15:08;10.10;;;8.77;;
41249;SDS011;26984;59.928;30.306;2022-08-19T14:17:37;11.25;;;8.02;;
41249;SDS011;26984;59.928;30.306;2022-08-19T14:20:06;12.43;;;7.78;;
41249;SDS011;26984;59.928;30.306;2022-08-19T14:22:37;12.75;;;9.38;;
41249;SDS011;26984;59.928;30.306;2022-08-19T14:25:08;12.55;;;7.57;;
41249;SDS011;26984;59.928;30.306;2022-08-19T14:27:38;10.50;;;7.60;;
41249;SDS011;26984;59.928;30.306;2022-08-19T14:30:08;9.68;;;7.63;;
41249;SDS011;26984;59.928;30.306;2022-08-19T14:32:37;9.50;;;7.65;;
41249;SDS011;26984;59.928;30.306;2022-08-19T14:35:05;12.68;;;8.07;;
41249;SDS011;26984;59.928;30.306;2022-08-19T14:37:34;13.55;;;8.25;;
41249;SDS011;26984;59.928;30.306;2022-08-19T14:40:06;14.20;;;8.70;;